createdAt,value
2023-05-15T00:00:57.273Z,97199.38
2023-05-15T00:04:01.170Z,97194.53
2023-05-15T00:07:05.195Z,97186.66
2023-05-15T00:10:10.582Z,97181.34
2023-05-15T00:13:14.733Z,97183.94
2023-05-15T00:16:18.630Z,97190.66
2023-05-15T00:19:22.641Z,97182.91
2023-05-15T00:22:26.483Z,97184.88
2023-05-15T00:25:30.435Z,97182.56
2023-05-15T00:28:34.488Z,97184.63
2023-05-15T00:31:38.463Z,97187.78
2023-05-15T00:34:42.595Z,97182.41
2023-05-15T00:37:46.800Z,97188.19
2023-05-15T00:40:51.121Z,97187.03
2023-05-15T00:43:55.322Z,97191.44
2023-05-15T00:46:59.417Z,97192.88
2023-05-15T00:50:03.395Z,97190.25
2023-05-15T00:53:07.443Z,97191.94
2023-05-15T00:56:11.495Z,97180.88
2023-05-15T00:59:15.506Z,97182.56
2023-05-15T01:02:19.693Z,97178.81
2023-05-15T01:05:23.963Z,97173.72
2023-05-15T01:08:27.909Z,97169.06
2023-05-15T01:11:32.114Z,97164.88
2023-05-15T01:14:36.292Z,97163.88
2023-05-15T01:17:40.550Z,97162.53
2023-05-15T01:20:44.308Z,97156.78
2023-05-15T01:23:48.237Z,97156.75
2023-05-15T01:26:52.590Z,97150.09
2023-05-15T01:29:57.885Z,97147.91
2023-05-15T01:33:02.069Z,97145.78
2023-05-15T01:36:06.166Z,97150.22
2023-05-15T01:39:10.532Z,97149.44
2023-05-15T01:42:14.488Z,97157.88
2023-05-15T01:45:18.620Z,97175.69
2023-05-15T01:48:22.686Z,97165.16
2023-05-15T01:51:26.397Z,97168.28
2023-05-15T01:54:30.472Z,97176.44
2023-05-15T01:57:34.604Z,97170.34
2023-05-15T02:00:38.548Z,97166.69
2023-05-15T02:03:42.390Z,97170.38
2023-05-15T02:06:48.864Z,97170.13
2023-05-15T02:09:52.801Z,97173.91
2023-05-15T02:12:57.003Z,97166.97
2023-05-15T02:16:00.853Z,97173.56
2023-05-15T02:19:04.652Z,97174.06
2023-05-15T02:22:08.634Z,97178.56
2023-05-15T02:25:12.412Z,97179.94
2023-05-15T02:28:16.503Z,97186.84
2023-05-15T02:31:20.863Z,97194.81
2023-05-15T02:34:25.958Z,97183.06
2023-05-15T02:37:29.969Z,97181.03
2023-05-15T02:40:34.163Z,97176.66
2023-05-15T02:43:38.423Z,97158.75
2023-05-15T02:46:42.338Z,97156.63
2023-05-15T02:49:46.380Z,97159.88
2023-05-15T02:52:50.554Z,97158.75
2023-05-15T02:55:54.470Z,97161.22
2023-05-15T02:58:58.644Z,97153.88
2023-05-15T03:02:02.922Z,97156.25
2023-05-15T03:05:06.794Z,97156.94
2023-05-15T03:08:10.906Z,97156.78
2023-05-15T03:11:15.044Z,97158.03
2023-05-15T03:14:19.182Z,97164.56
2023-05-15T03:17:23.242Z,97157.31
2023-05-15T03:20:27.023Z,97163.72
2023-05-15T03:23:30.964Z,97165.00
2023-05-15T03:26:35.030Z,97163.72
2023-05-15T03:29:38.909Z,97162.44
2023-05-15T03:32:42.842Z,97161.63
2023-05-15T03:35:47.031Z,97165.78
2023-05-15T03:38:51.131Z,97167.94
2023-05-15T03:41:55.085Z,97162.16
2023-05-15T03:44:59.146Z,97163.44
2023-05-15T03:48:03.200Z,97159.94
2023-05-15T03:51:07.419Z,97156.38
2023-05-15T03:54:11.464Z,97161.81
2023-05-15T03:57:17.677Z,97153.91
2023-05-15T04:00:23.652Z,97157.28
2023-05-15T04:03:27.484Z,97158.44
2023-05-15T04:06:31.477Z,97155.94
2023-05-15T04:09:35.593Z,97155.13
2023-05-15T04:12:39.492Z,97165.59
2023-05-15T04:15:43.521Z,97158.22
2023-05-15T04:18:47.466Z,97159.44
2023-05-15T04:21:51.725Z,97165.88
2023-05-15T04:24:56.008Z,97157.94
2023-05-15T04:28:00.115Z,97158.78
2023-05-15T04:31:03.849Z,97145.47
2023-05-15T04:34:08.003Z,97152.09
2023-05-15T04:37:12.390Z,97150.16
2023-05-15T04:40:16.897Z,97150.34
2023-05-15T04:43:21.143Z,97155.78
2023-05-15T04:46:24.908Z,97155.00
2023-05-15T04:49:28.989Z,97163.31
2023-05-15T04:52:33.457Z,97163.16
2023-05-15T04:55:40.567Z,97157.31
2023-05-15T04:58:44.710Z,97162.72
2023-05-15T05:01:48.527Z,97170.19
2023-05-15T05:04:52.510Z,97168.84
2023-05-15T05:07:56.878Z,97175.50
2023-05-15T05:11:01.161Z,97176.16
2023-05-15T05:14:05.233Z,97180.75
2023-05-15T05:17:09.100Z,97175.47
2023-05-15T05:20:13.324Z,97177.16
2023-05-15T05:32:50.169Z,97183.84
2023-05-15T05:50:00.693Z,97168.81
2023-05-15T05:53:17.949Z,97169.84
2023-05-15T05:56:44.791Z,97173.59
2023-05-15T06:00:20.554Z,97176.56
2023-05-15T06:09:58.563Z,97161.78
2023-05-15T06:13:50.492Z,97174.78
2023-05-15T06:20:58.904Z,97168.97
2023-05-15T06:23:25.963Z,97176.38
2023-05-15T06:26:31.526Z,97182.47
2023-05-15T06:29:56.590Z,97183.78
2023-05-15T06:41:51.615Z,97193.09
2023-05-15T06:44:55.504Z,97187.78
2023-05-15T06:48:01.577Z,97192.03
2023-05-15T06:51:08.410Z,97186.69
2023-05-15T06:54:27.697Z,97194.56
2023-05-15T06:57:54.439Z,97193.56
2023-05-15T07:01:01.384Z,97191.66
2023-05-15T07:04:08.172Z,97194.34
2023-05-15T07:07:12.624Z,97190.91
2023-05-15T07:10:34.447Z,97187.13
2023-05-15T07:13:43.107Z,97177.25
2023-05-15T07:16:47.464Z,97174.22
2023-05-15T07:20:01.898Z,97185.63
2023-05-15T07:23:08.155Z,97190.88
2023-05-15T07:26:20.029Z,97186.22
2023-05-15T07:29:32.268Z,97183.97
2023-05-15T07:32:37.876Z,97183.47
2023-05-15T07:35:42.070Z,97185.03
2023-05-15T07:38:50.452Z,97182.56
2023-05-15T07:48:24.665Z,97176.16
2023-05-15T07:51:28.853Z,97183.34
2023-05-15T07:54:33.099Z,97174.75
2023-05-15T07:57:41.951Z,97179.47
2023-05-15T08:00:47.448Z,97178.19
2023-05-15T08:03:54.500Z,97170.38
2023-05-15T08:07:02.534Z,97170.94
2023-05-15T08:10:09.673Z,97170.69
2023-05-15T08:13:18.209Z,97161.09
2023-05-15T08:16:23.748Z,97160.50
2023-05-15T08:19:29.135Z,97156.19
2023-05-15T08:22:34.082Z,97161.50
2023-05-15T08:26:00.510Z,97169.53
2023-05-15T08:29:49.806Z,97154.09
2023-05-15T08:32:31.785Z,97155.25
2023-05-15T08:35:36.036Z,97155.47
2023-05-15T08:38:41.162Z,97161.94
2023-05-15T08:45:15.721Z,97166.34
2023-05-15T08:48:20.023Z,97162.00
2023-05-15T08:51:24.559Z,97167.19
2023-05-15T08:54:36.454Z,97171.88
2023-05-15T08:57:40.540Z,97158.78
2023-05-15T09:00:44.382Z,97149.38
2023-05-15T09:03:48.291Z,97149.53
2023-05-15T09:06:51.927Z,97145.53
2023-05-15T09:09:58.614Z,97146.97
2023-05-15T09:13:03.908Z,97136.16
2023-05-15T09:16:12.226Z,97135.81
2023-05-15T09:19:17.740Z,97132.16
2023-05-15T09:22:49.783Z,97123.31
2023-05-15T09:25:52.724Z,97119.81
2023-05-15T09:29:23.905Z,97115.91
2023-05-15T09:32:27.858Z,97120.56
2023-05-15T09:35:39.109Z,97120.00
2023-05-15T09:38:45.083Z,97115.00
2023-05-15T09:41:51.932Z,97104.59
2023-05-15T09:44:56.044Z,97104.81
2023-05-15T09:48:24.404Z,97102.06
2023-05-15T09:51:34.174Z,97099.13
2023-05-15T09:54:43.191Z,97094.09
2023-05-15T10:01:29.977Z,97098.09
2023-05-15T10:04:58.378Z,97096.97
2023-05-15T10:08:02.651Z,97099.69
2023-05-15T10:11:09.954Z,97109.72
2023-05-15T10:14:14.647Z,97108.50
2023-05-15T10:17:33.156Z,97106.69
2023-05-15T10:20:39.824Z,97101.56
2023-05-15T10:27:06.538Z,97092.78
2023-05-15T10:30:14.231Z,97094.34
2023-05-15T10:33:21.393Z,97086.59
2023-05-15T10:36:25.310Z,97081.59
2023-05-15T10:39:29.350Z,97066.34
2023-05-15T10:42:33.796Z,97064.94
2023-05-15T10:45:48.611Z,97058.88
2023-05-15T10:48:52.667Z,97056.31
2023-05-15T10:51:58.054Z,97059.00
2023-05-15T10:55:06.542Z,97050.38
2023-05-15T10:58:10.908Z,97036.78
2023-05-15T11:01:15.057Z,97044.03
2023-05-15T11:04:23.366Z,97022.88
2023-05-15T11:07:32.121Z,97018.78
2023-05-15T11:10:36.655Z,97015.69
2023-05-15T11:13:41.619Z,97012.59
2023-05-15T11:16:45.822Z,97009.41
2023-05-15T11:19:54.222Z,97001.56
2023-05-15T11:22:58.307Z,97006.41
2023-05-15T11:26:04.639Z,97000.88
2023-05-15T11:29:23.189Z,96988.00
2023-05-15T11:32:31.450Z,96983.88
2023-05-15T11:35:35.477Z,96979.84
2023-05-15T11:38:40.685Z,96992.25
2023-05-15T11:41:49.003Z,96994.63
2023-05-15T11:44:54.244Z,97001.00
2023-05-15T11:48:01.266Z,96992.88
2023-05-15T11:58:01.521Z,97009.41
2023-05-15T12:01:05.569Z,97003.59
2023-05-15T12:04:10.145Z,97004.25
2023-05-15T12:07:48.658Z,96998.91
2023-05-15T12:11:15.960Z,96998.03
2023-05-15T14:18:12.698Z,96987.44
2023-05-15T14:24:39.690Z,96992.00
2023-05-15T14:27:43.760Z,96998.91
2023-05-15T14:31:18.453Z,97003.78
2023-05-15T14:55:54.400Z,97003.97
2023-05-15T15:12:32.667Z,97016.47
2023-05-15T15:15:59.201Z,97013.84
2023-05-15T15:19:08.533Z,97008.31
2023-05-15T15:25:37.840Z,97023.94
2023-05-15T15:28:43.418Z,97019.13
2023-05-15T15:31:53.598Z,97028.00
2023-05-15T15:38:27.001Z,97026.06
2023-05-15T15:41:56.044Z,97026.03
2023-05-15T15:48:26.437Z,97019.22
2023-05-15T15:51:53.256Z,97024.28
2023-05-15T15:55:06.118Z,97022.50
2023-05-15T15:58:10.748Z,97019.69
2023-05-15T16:01:19.800Z,97022.00
2023-05-15T16:04:36.029Z,97017.16
2023-05-15T16:11:51.024Z,97025.84
2023-05-15T16:14:35.490Z,97023.38
2023-05-15T16:17:42.637Z,97018.59
2023-05-15T16:20:50.814Z,97019.00
2023-05-15T16:27:23.434Z,97020.16
2023-05-15T16:33:44.897Z,97027.22
2023-05-15T16:36:49.349Z,97031.44
2023-05-15T16:39:54.646Z,97019.19
2023-05-15T16:43:03.502Z,97022.69
2023-05-15T16:46:08.299Z,97023.88
2023-05-15T16:49:17.082Z,97025.00
2023-05-15T16:55:56.780Z,97023.03
2023-05-15T16:59:00.836Z,97031.06
2023-05-15T17:02:04.720Z,97026.81
2023-05-15T17:05:08.556Z,97030.84
2023-05-15T17:08:12.533Z,97035.09
2023-05-15T17:11:19.227Z,97032.56
2023-05-15T17:14:23.495Z,97037.16
2023-05-15T17:17:27.844Z,97034.81
2023-05-15T17:20:31.601Z,97039.63
2023-05-15T17:23:35.840Z,97044.91
2023-05-15T17:26:39.907Z,97054.41
2023-05-15T17:29:44.084Z,97047.03
2023-05-15T17:32:47.934Z,97053.19
2023-05-15T17:35:51.937Z,97051.38
2023-05-15T17:38:56.125Z,97050.97
2023-05-15T17:42:00.262Z,97061.72
2023-05-15T17:45:04.487Z,97063.31
2023-05-15T17:48:08.158Z,97063.84
2023-05-15T17:51:11.993Z,97068.88
2023-05-15T17:54:16.298Z,97074.75
2023-05-15T17:57:22.320Z,97087.97
2023-05-15T18:00:26.039Z,97089.03
2023-05-15T18:03:30.359Z,97105.47
2023-05-15T18:06:34.675Z,97106.59
2023-05-15T18:09:38.960Z,97107.97
2023-05-15T18:12:43.165Z,97107.69
2023-05-15T18:15:46.939Z,97115.13
2023-05-15T18:18:50.985Z,97110.09
2023-05-15T18:21:56.088Z,97109.53
2023-05-15T18:25:00.211Z,97101.03
2023-05-15T18:28:06.665Z,97100.03
2023-05-15T18:31:10.938Z,97105.31
2023-05-15T18:34:14.844Z,97103.19
2023-05-15T18:37:19.041Z,97100.00
2023-05-15T18:40:23.538Z,97106.34
2023-05-15T18:43:27.816Z,97099.50
2023-05-15T18:46:31.820Z,97101.06
2023-05-15T18:49:35.569Z,97109.03
2023-05-15T18:52:41.768Z,97099.22
2023-05-15T18:55:46.084Z,97103.38
2023-05-15T18:58:53.121Z,97103.72
2023-05-15T19:01:59.650Z,97099.50
2023-05-15T19:05:03.953Z,97100.47
2023-05-15T19:08:07.931Z,97099.94
2023-05-15T19:11:11.927Z,97097.59
2023-05-15T19:14:16.027Z,97094.38
2023-05-15T19:17:19.997Z,97103.09
2023-05-15T19:20:24.167Z,97098.00
2023-05-15T19:23:27.938Z,97103.91
2023-05-15T19:26:33.407Z,97110.84
2023-05-15T19:29:37.407Z,97102.88
2023-05-15T19:32:42.370Z,97106.00
2023-05-15T19:35:46.373Z,97112.75
2023-05-15T19:38:58.090Z,97107.34
2023-05-15T19:42:02.399Z,97114.94
2023-05-15T19:45:06.286Z,97117.31
2023-05-15T19:48:09.995Z,97119.63
2023-05-15T19:51:13.808Z,97121.75
2023-05-15T19:54:21.719Z,97122.00
2023-05-15T19:57:26.214Z,97116.91
2023-05-15T20:00:30.556Z,97115.56
2023-05-15T20:03:34.762Z,97110.47
2023-05-15T20:06:38.594Z,97111.53
2023-05-15T20:09:42.882Z,97112.47
2023-05-15T20:12:48.986Z,97121.72
2023-05-15T20:15:54.299Z,97119.34
2023-05-15T20:19:04.585Z,97120.69
2023-05-15T20:22:09.975Z,97122.00
2023-05-15T20:25:14.146Z,97112.16
2023-05-15T20:28:18.093Z,97116.06
2023-05-15T20:31:24.519Z,97111.16
2023-05-15T20:34:28.212Z,97119.13
2023-05-15T20:37:32.207Z,97118.56
2023-05-15T20:40:39.902Z,97120.44
2023-05-15T20:43:44.523Z,97117.22
2023-05-15T20:46:48.570Z,97121.72
2023-05-15T20:49:52.592Z,97122.78
2023-05-15T20:52:56.791Z,97116.97
2023-05-15T20:56:03.685Z,97117.25
2023-05-15T20:59:09.274Z,97113.78
2023-05-15T21:02:17.487Z,97121.44
2023-05-15T21:05:21.426Z,97118.03
2023-05-15T21:08:25.268Z,97124.69
2023-05-15T21:11:29.346Z,97114.31
2023-05-15T21:14:33.310Z,97117.25
2023-05-15T21:17:40.318Z,97113.53
2023-05-15T21:20:56.448Z,97107.69
2023-05-15T21:24:05.060Z,97112.47
2023-05-15T21:27:14.708Z,97102.38
2023-05-15T21:30:25.423Z,97104.50
2023-05-15T21:33:37.108Z,97105.53
2023-05-15T21:36:44.055Z,97099.22
2023-05-15T21:39:48.643Z,97098.91
2023-05-15T21:42:55.454Z,97101.88
2023-05-15T21:45:59.770Z,97094.69
2023-05-15T21:49:04.992Z,97092.00
2023-05-15T21:52:11.255Z,97094.44
2023-05-15T21:55:16.348Z,97087.28
2023-05-15T21:58:20.503Z,97077.97
2023-05-15T22:01:24.602Z,97083.84
2023-05-15T22:04:28.866Z,97069.25
2023-05-15T22:07:32.905Z,97068.72
2023-05-15T22:13:55.500Z,97074.31
2023-05-15T22:16:59.733Z,97072.19
2023-05-15T22:23:24.785Z,97067.13
2023-05-15T22:26:29.738Z,97076.41
2023-05-15T22:29:33.852Z,97083.31
2023-05-15T22:32:38.134Z,97079.88
2023-05-15T22:35:42.355Z,97079.84
2023-05-15T22:38:45.968Z,97074.81
2023-05-15T22:41:50.058Z,97075.91
2023-05-15T22:44:53.932Z,97079.06
2023-05-15T22:47:57.649Z,97070.59
2023-05-15T22:51:01.644Z,97069.53
2023-05-15T22:54:05.596Z,97068.19
2023-05-15T22:57:09.650Z,97058.91
2023-05-15T23:00:13.879Z,97065.28
2023-05-15T23:03:18.607Z,97058.63
2023-05-15T23:06:22.590Z,97055.69
2023-05-15T23:09:26.049Z,97048.84
2023-05-15T23:12:30.031Z,97058.91
2023-05-15T23:15:34.321Z,97046.22
2023-05-15T23:18:45.986Z,97046.72
2023-05-15T23:21:50.175Z,97044.63
2023-05-15T23:24:58.496Z,97043.53
2023-05-15T23:28:02.787Z,97039.56
2023-05-15T23:31:06.824Z,97040.63
2023-05-15T23:34:13.814Z,97042.22
2023-05-15T23:37:17.816Z,97040.88
2023-05-15T23:40:25.200Z,97050.44
2023-05-15T23:43:32.691Z,97044.56
2023-05-15T23:46:36.914Z,97042.47
2023-05-15T23:49:42.622Z,97040.06
2023-05-15T23:52:46.913Z,97042.50
2023-05-15T23:55:53.981Z,97041.41
2023-05-15T23:58:57.770Z,97048.84
